createdAt,value
2022-11-04T00:00:19.467Z,25.30
2022-11-04T00:03:01.891Z,24.90
2022-11-04T00:05:30.457Z,24.80
2022-11-04T00:08:17.137Z,25.30
2022-11-04T00:11:03.963Z,23.50
2022-11-04T00:13:31.887Z,23.30
2022-11-04T00:16:21.544Z,25.30
2022-11-04T00:18:49.534Z,25.30
2022-11-04T00:21:36.107Z,23.90
2022-11-04T00:24:25.041Z,23.00
2022-11-04T00:27:11.748Z,24.70
2022-11-04T00:29:40.604Z,24.40
2022-11-04T00:32:27.200Z,25.50
2022-11-04T00:34:56.150Z,25.10
2022-11-04T00:37:23.924Z,25.00
2022-11-04T00:39:51.648Z,23.30
2022-11-04T00:42:19.371Z,29.50
2022-11-04T00:44:47.084Z,22.10
2022-11-04T00:47:15.040Z,23.30
2022-11-04T00:49:42.744Z,22.30
2022-11-04T00:52:10.719Z,22.00
2022-11-04T00:54:38.444Z,22.50
2022-11-04T00:57:10.265Z,21.40
2022-11-04T00:59:40.698Z,20.80
2022-11-04T01:02:10.450Z,20.50
2022-11-04T01:04:38.649Z,22.30
2022-11-04T01:07:07.592Z,21.30
2022-11-04T01:09:35.620Z,20.40
2022-11-04T01:12:04.679Z,23.80
2022-11-04T01:14:32.740Z,19.70
2022-11-04T01:17:00.686Z,18.40
2022-11-04T01:19:28.428Z,20.10
2022-11-04T01:21:56.153Z,21.80
2022-11-04T01:24:23.881Z,22.60
2022-11-04T01:26:52.116Z,22.70
2022-11-04T01:29:19.855Z,18.50
2022-11-04T01:31:47.781Z,19.50
2022-11-04T01:34:15.795Z,22.40
2022-11-04T01:36:43.717Z,21.50
2022-11-04T01:39:13.551Z,19.90
2022-11-04T01:41:41.618Z,21.90
2022-11-04T01:44:49.403Z,19.80
2022-11-04T01:47:33.320Z,22.90
2022-11-04T01:52:46.767Z,21.90
2022-11-04T01:55:24.687Z,22.90
2022-11-04T01:58:01.827Z,21.40
2022-11-04T02:00:30.934Z,21.40
2022-11-04T02:03:10.820Z,21.10
2022-11-04T02:05:40.928Z,21.50
2022-11-04T02:08:11.809Z,22.90
2022-11-04T02:10:46.041Z,22.10
2022-11-04T02:13:14.042Z,19.90
2022-11-04T02:16:04.959Z,22.70
2022-11-04T02:18:38.898Z,22.30
2022-11-04T02:21:09.608Z,26.30
2022-11-04T02:24:05.697Z,23.20
2022-11-04T02:27:08.387Z,22.10
2022-11-04T02:29:45.718Z,23.00
2022-11-04T02:32:32.222Z,25.50
2022-11-04T02:35:25.240Z,23.70
2022-11-04T02:38:08.184Z,24.80
2022-11-04T02:40:44.020Z,27.20
2022-11-04T02:43:38.479Z,23.70
2022-11-04T02:46:27.609Z,24.80
2022-11-04T02:48:58.668Z,24.80
2022-11-04T02:51:56.964Z,24.10
2022-11-04T02:54:50.392Z,25.50
2022-11-04T02:57:24.530Z,18.50
2022-11-04T03:00:04.093Z,27.60
2022-11-04T03:02:41.863Z,24.30
2022-11-04T03:05:15.938Z,25.20
2022-11-04T03:07:48.644Z,25.60
2022-11-04T03:10:27.393Z,27.50
2022-11-04T03:13:04.058Z,25.80
2022-11-04T03:15:36.113Z,31.00
2022-11-04T03:18:23.157Z,27.80
2022-11-04T03:20:55.923Z,27.40
2022-11-04T03:23:24.798Z,27.00
2022-11-04T03:25:58.596Z,26.20
2022-11-04T03:29:01.095Z,25.10
2022-11-04T03:32:01.226Z,25.30
2022-11-04T03:34:30.417Z,27.20
2022-11-04T03:36:59.634Z,28.80
2022-11-04T03:39:28.642Z,27.40
2022-11-04T03:42:01.297Z,28.70
2022-11-04T03:44:30.768Z,26.90
2022-11-04T03:46:58.786Z,28.30
2022-11-04T03:49:28.119Z,23.80
2022-11-04T03:51:58.134Z,23.30
2022-11-04T03:54:27.101Z,24.80
2022-11-04T03:57:13.998Z,25.80
2022-11-04T04:00:11.272Z,24.00
2022-11-04T04:02:57.003Z,23.60
2022-11-04T04:05:39.753Z,29.20
2022-11-04T04:08:23.939Z,27.30
2022-11-04T04:11:10.340Z,22.70
2022-11-04T04:13:45.433Z,24.50
2022-11-04T04:16:30.479Z,26.80
2022-11-04T04:19:24.547Z,24.30
2022-11-04T04:22:15.542Z,23.00
2022-11-04T04:25:08.166Z,22.70
2022-11-04T04:27:38.658Z,23.10
2022-11-04T04:30:17.963Z,23.30
2022-11-04T04:32:54.436Z,23.60
2022-11-04T04:35:44.165Z,21.60
2022-11-04T04:38:33.707Z,23.40
2022-11-04T04:41:37.160Z,27.90
2022-11-04T04:44:40.139Z,29.00
2022-11-04T04:47:11.804Z,25.80
2022-11-04T04:49:51.114Z,25.70
2022-11-04T04:52:20.816Z,28.70
2022-11-04T04:54:48.561Z,25.40
2022-11-04T04:57:16.466Z,22.10
2022-11-04T04:59:44.219Z,24.70
2022-11-04T05:02:12.357Z,22.20
2022-11-04T05:04:41.359Z,26.10
2022-11-04T05:07:10.917Z,26.30
2022-11-04T05:09:38.886Z,27.60
2022-11-04T05:12:06.643Z,24.10
2022-11-04T05:14:35.073Z,25.40
2022-11-04T05:17:02.848Z,24.90
2022-11-04T05:19:30.554Z,27.80
2022-11-04T05:22:01.298Z,24.60
2022-11-04T05:24:29.258Z,24.20
2022-11-04T05:26:56.979Z,26.80
2022-11-04T05:29:24.736Z,23.90
2022-11-04T05:31:52.692Z,23.00
2022-11-04T05:34:20.416Z,23.30
2022-11-04T05:36:48.121Z,22.60
2022-11-04T05:39:15.926Z,20.80
2022-11-04T05:41:43.890Z,23.50
2022-11-04T05:44:11.692Z,25.30
2022-11-04T05:46:39.666Z,22.50
2022-11-04T05:49:07.585Z,21.80
2022-11-04T05:51:35.341Z,22.40
2022-11-04T05:54:03.352Z,24.20
2022-11-04T05:56:31.103Z,26.10
2022-11-04T05:58:59.053Z,27.00
2022-11-04T06:01:36.917Z,25.20
2022-11-04T06:04:06.890Z,33.10
2022-11-04T06:06:36.843Z,34.60
2022-11-04T06:09:04.846Z,37.50
2022-11-04T06:11:34.523Z,35.40
2022-11-04T06:14:02.226Z,35.70
2022-11-04T06:16:30.131Z,35.00
2022-11-04T06:19:03.375Z,32.60
2022-11-04T06:21:36.227Z,31.60
2022-11-04T06:24:05.373Z,31.90
2022-11-04T06:26:33.096Z,48.10
2022-11-04T06:29:01.074Z,51.10
2022-11-04T06:31:29.834Z,37.20
2022-11-04T06:33:57.760Z,35.80
2022-11-04T06:36:27.777Z,37.20
2022-11-04T06:38:59.952Z,30.40
2022-11-04T06:41:31.903Z,31.20
2022-11-04T06:44:00.092Z,33.60
2022-11-04T06:46:36.934Z,35.30
2022-11-04T06:49:06.960Z,37.50
2022-11-04T06:51:34.766Z,35.80
2022-11-04T06:54:02.760Z,35.40
2022-11-04T06:56:30.493Z,34.30
2022-11-04T06:59:00.133Z,36.90
2022-11-04T07:01:31.633Z,36.70
2022-11-04T07:04:01.298Z,33.00
2022-11-04T07:06:30.323Z,33.30
2022-11-04T07:09:00.738Z,39.40
2022-11-04T07:11:33.094Z,38.90
2022-11-04T07:14:00.798Z,38.60
2022-11-04T07:16:28.819Z,40.10
2022-11-04T07:18:56.598Z,42.20
2022-11-04T07:21:24.388Z,35.90
2022-11-04T07:23:52.469Z,34.10
2022-11-04T07:26:20.329Z,31.50
2022-11-04T07:28:48.073Z,29.80
2022-11-04T07:31:18.170Z,30.30
2022-11-04T07:33:52.064Z,27.90
2022-11-04T07:36:21.974Z,28.10
2022-11-04T07:38:50.930Z,25.00
2022-11-04T07:41:19.607Z,26.50
2022-11-04T07:43:52.489Z,28.60
2022-11-04T07:46:21.879Z,27.70
2022-11-04T07:48:49.923Z,32.50
2022-11-04T07:51:20.466Z,31.00
2022-11-04T07:53:48.541Z,37.90
2022-11-04T07:56:18.988Z,30.20
2022-11-04T07:58:46.916Z,27.90
2022-11-04T08:01:18.641Z,29.90
2022-11-04T08:03:46.458Z,21.90
2022-11-04T08:06:17.556Z,25.40
2022-11-04T08:08:45.653Z,19.70
2022-11-04T08:11:20.876Z,17.30
2022-11-04T08:13:49.634Z,15.50
2022-11-04T08:16:23.948Z,18.90
2022-11-04T08:18:54.242Z,15.50
2022-11-04T08:21:23.248Z,15.40
2022-11-04T08:23:52.665Z,20.20
2022-11-04T08:26:24.170Z,18.30
2022-11-04T08:28:53.336Z,18.90
2022-11-04T08:31:26.118Z,17.10
2022-11-04T08:33:55.240Z,16.70
2022-11-04T08:36:28.001Z,15.20
2022-11-04T08:38:57.041Z,18.10
2022-11-04T08:41:29.423Z,19.20
2022-11-04T08:44:04.289Z,16.60
2022-11-04T08:46:36.516Z,17.10
2022-11-04T08:49:09.961Z,15.70
2022-11-04T08:51:44.794Z,17.50
2022-11-04T08:54:12.561Z,16.10
2022-11-04T08:56:41.415Z,14.80
2022-11-04T08:59:11.530Z,16.00
2022-11-04T09:01:39.434Z,15.00
2022-11-04T09:04:07.435Z,18.00
2022-11-04T09:06:39.268Z,18.20
2022-11-04T09:09:10.909Z,16.40
2022-11-04T09:11:42.773Z,17.60
2022-11-04T09:14:12.368Z,15.40
2022-11-04T09:16:42.286Z,15.20
2022-11-04T09:19:10.371Z,19.00
2022-11-04T09:21:38.244Z,14.10
2022-11-04T09:24:08.716Z,15.60
2022-11-04T09:26:38.021Z,13.80
2022-11-04T09:29:08.621Z,17.40
2022-11-04T09:31:36.872Z,18.70
2022-11-04T09:34:04.876Z,14.40
2022-11-04T09:36:33.383Z,15.90
2022-11-04T09:39:01.376Z,15.50
2022-11-04T09:41:51.588Z,16.30
2022-11-04T09:45:14.844Z,16.60
2022-11-04T09:47:36.713Z,13.60
2022-11-04T09:50:08.462Z,15.80
2022-11-04T09:52:45.534Z,16.60
2022-11-04T09:55:40.041Z,16.30
2022-11-04T09:58:13.062Z,15.30
2022-11-04T10:00:46.061Z,13.00
2022-11-04T10:03:27.520Z,18.40
2022-11-04T10:06:07.536Z,20.20
2022-11-04T10:08:41.018Z,17.00
2022-11-04T10:13:50.571Z,17.40
2022-11-04T10:16:24.009Z,20.10
2022-11-04T10:21:57.647Z,17.50
2022-11-04T10:24:35.915Z,17.10
2022-11-04T10:27:11.439Z,20.90
2022-11-04T10:30:22.065Z,16.20
2022-11-04T10:33:12.548Z,18.20
2022-11-04T10:36:04.868Z,21.60
2022-11-04T10:38:38.431Z,20.30
2022-11-04T10:41:20.322Z,21.30
2022-11-04T10:43:49.481Z,19.00
2022-11-04T10:46:30.489Z,22.70
2022-11-04T10:49:14.215Z,17.80
2022-11-04T10:51:42.799Z,17.10
2022-11-04T10:54:12.113Z,18.00
2022-11-04T10:56:48.183Z,16.10
2022-11-04T10:59:37.343Z,16.40
2022-11-04T11:02:05.158Z,16.20
2022-11-04T11:04:36.756Z,16.90
2022-11-04T11:07:09.183Z,21.00
2022-11-04T11:09:53.988Z,20.80
2022-11-04T11:12:56.574Z,22.10
2022-11-04T11:15:30.626Z,27.60
2022-11-04T11:18:07.789Z,20.90
2022-11-04T11:20:39.259Z,23.60
2022-11-04T11:23:38.526Z,22.80
2022-11-04T11:26:11.951Z,22.60
2022-11-04T11:31:17.438Z,20.40
2022-11-04T11:33:58.253Z,18.00
2022-11-04T11:36:31.658Z,17.80
2022-11-04T11:41:53.583Z,14.40
2022-11-04T11:44:39.295Z,19.80
2022-11-04T11:47:29.229Z,17.80
2022-11-04T11:50:20.947Z,14.80
2022-11-04T11:52:52.909Z,19.50
2022-11-04T11:55:24.017Z,14.60
2022-11-04T12:01:03.486Z,38.80
2022-11-04T12:10:52.398Z,23.70
2022-11-04T12:13:30.898Z,27.40
2022-11-04T12:16:16.752Z,19.50
2022-11-04T12:19:02.998Z,34.80
2022-11-04T12:21:47.404Z,27.10
2022-11-04T12:24:31.859Z,31.40
2022-11-04T12:27:15.503Z,23.30
2022-11-04T12:32:23.144Z,21.70
2022-11-04T12:34:57.179Z,23.80
2022-11-04T12:38:03.452Z,24.30
2022-11-04T12:41:46.778Z,26.50
2022-11-04T12:44:26.038Z,25.00
2022-11-04T12:47:12.733Z,21.00
2022-11-04T12:49:58.839Z,22.80
2022-11-04T12:52:26.726Z,25.90
2022-11-04T12:55:25.729Z,27.50
2022-11-04T12:58:32.261Z,29.30
2022-11-04T13:01:15.014Z,30.30
2022-11-04T13:04:08.094Z,24.90
2022-11-04T13:06:41.835Z,26.60
2022-11-04T13:09:16.994Z,27.50
2022-11-04T13:11:56.703Z,28.20
2022-11-04T13:14:33.423Z,36.10
2022-11-04T13:17:08.569Z,29.30
2022-11-04T13:19:50.410Z,30.60
2022-11-04T13:22:26.910Z,24.90
2022-11-04T13:25:07.443Z,29.40
2022-11-04T13:27:45.210Z,42.00
2022-11-04T13:30:48.288Z,21.00
2022-11-04T13:33:47.646Z,45.40
2022-11-04T13:36:44.687Z,25.20
2022-11-04T13:39:24.272Z,28.20
2022-11-04T13:42:12.417Z,31.00
2022-11-04T13:44:45.275Z,33.00
2022-11-04T13:47:22.474Z,63.60
2022-11-04T13:49:56.358Z,29.50
2022-11-04T13:55:20.497Z,26.90
2022-11-04T13:57:58.284Z,21.40
2022-11-04T14:00:31.701Z,26.10
2022-11-04T14:05:32.066Z,28.70
2022-11-04T14:08:02.703Z,29.60
2022-11-04T14:10:51.074Z,34.20
2022-11-04T14:13:29.121Z,34.30
2022-11-04T14:16:05.869Z,33.90
2022-11-04T14:18:35.821Z,34.60
2022-11-04T14:21:13.353Z,30.10
2022-11-04T14:23:49.819Z,26.60
2022-11-04T14:26:24.341Z,22.50
2022-11-04T14:29:18.225Z,28.10
2022-11-04T14:34:29.402Z,19.30
2022-11-04T14:37:06.552Z,18.90
2022-11-04T14:39:40.060Z,22.80
2022-11-04T14:44:50.390Z,20.20
2022-11-04T14:47:20.780Z,24.10
2022-11-04T14:49:52.359Z,33.10
2022-11-04T14:52:26.016Z,37.70
2022-11-04T14:55:02.134Z,43.90
2022-11-04T14:57:36.688Z,40.20
2022-11-04T15:00:29.839Z,38.20
2022-11-04T15:03:10.543Z,30.90
2022-11-04T15:06:01.415Z,30.20
2022-11-04T15:08:41.336Z,40.50
2022-11-04T15:11:40.086Z,48.40
2022-11-04T15:14:29.082Z,56.30
2022-11-04T15:17:00.257Z,68.70
2022-11-04T15:19:31.313Z,81.70
2022-11-04T15:22:02.661Z,105.20
2022-11-04T15:24:32.184Z,111.50
2022-11-04T15:27:06.064Z,123.70
2022-11-04T15:29:35.325Z,92.30
2022-11-04T15:32:05.692Z,93.20
2022-11-04T15:34:36.853Z,87.30
2022-11-04T15:37:06.556Z,88.70
2022-11-04T15:39:43.693Z,87.80
2022-11-04T15:42:41.202Z,88.90
2022-11-04T15:45:39.314Z,82.40
2022-11-04T15:48:31.745Z,86.00
2022-11-04T15:51:16.840Z,95.30
2022-11-04T15:53:48.957Z,92.30
2022-11-04T15:56:27.605Z,74.80
2022-11-04T15:58:58.929Z,93.90
2022-11-04T16:01:29.134Z,97.00
2022-11-04T16:04:03.074Z,100.30
2022-11-04T16:06:36.401Z,103.90
2022-11-04T16:09:26.588Z,110.00
2022-11-04T16:12:36.041Z,107.60
2022-11-04T16:15:05.124Z,123.10
2022-11-04T16:17:32.925Z,118.60
2022-11-04T16:20:06.400Z,118.40
2022-11-04T16:22:41.464Z,116.60
2022-11-04T16:25:22.543Z,105.70
2022-11-04T16:27:51.795Z,99.10
2022-11-04T16:30:23.448Z,89.40
2022-11-04T16:32:55.894Z,89.20
2022-11-04T16:35:28.294Z,78.50
2022-11-04T16:37:57.233Z,76.60
2022-11-04T16:40:26.269Z,71.40
2022-11-04T16:42:56.634Z,78.90
2022-11-04T16:45:34.459Z,82.40
2022-11-04T16:48:02.546Z,83.70
2022-11-04T16:50:33.038Z,82.30
2022-11-04T16:53:04.710Z,79.40
2022-11-04T16:55:33.727Z,83.60
2022-11-04T16:58:05.672Z,89.50
2022-11-04T17:00:34.663Z,85.20
2022-11-04T17:03:22.172Z,89.70
2022-11-04T17:05:55.661Z,91.80
2022-11-04T17:08:25.874Z,93.40
2022-11-04T17:10:55.301Z,106.90
2022-11-04T17:13:23.051Z,102.80
2022-11-04T17:15:50.977Z,106.90
2022-11-04T17:18:18.922Z,96.80
2022-11-04T17:20:53.590Z,86.50
2022-11-04T17:23:22.552Z,90.40
2022-11-04T17:25:52.977Z,88.20
2022-11-04T17:28:20.960Z,94.20
2022-11-04T17:30:48.933Z,85.20
2022-11-04T17:33:20.417Z,78.50
2022-11-04T17:35:51.408Z,82.10
2022-11-04T17:38:20.592Z,77.70
2022-11-04T17:41:07.034Z,79.60
2022-11-04T17:43:53.694Z,77.60
2022-11-04T17:46:35.187Z,83.70
2022-11-04T17:49:11.641Z,86.20
2022-11-04T17:51:42.727Z,96.20
2022-11-04T17:54:11.742Z,93.30
2022-11-04T17:56:41.305Z,86.10
2022-11-04T17:59:12.518Z,90.70
2022-11-04T18:01:43.774Z,96.20
2022-11-04T18:04:20.532Z,90.80
2022-11-04T18:06:50.511Z,95.40
2022-11-04T18:09:19.578Z,92.10
2022-11-04T18:12:06.519Z,101.30
2022-11-04T18:14:34.299Z,102.30
2022-11-04T18:17:03.250Z,94.20
2022-11-04T18:19:32.074Z,102.30
2022-11-04T18:22:01.887Z,110.50
2022-11-04T18:24:29.729Z,115.80
2022-11-04T18:27:01.845Z,116.10
2022-11-04T18:29:29.603Z,116.70
2022-11-04T18:31:57.412Z,89.00
2022-11-04T18:34:25.225Z,92.50
2022-11-04T18:36:53.058Z,84.90
2022-11-04T18:39:20.856Z,84.00
2022-11-04T18:41:48.575Z,94.50
2022-11-04T18:44:20.687Z,100.50
2022-11-04T18:46:49.828Z,103.50
2022-11-04T18:49:21.643Z,97.50
2022-11-04T18:51:49.432Z,102.70
2022-11-04T18:54:17.194Z,90.10
2022-11-04T18:56:46.010Z,84.20
2022-11-04T18:59:16.092Z,81.50
2022-11-04T19:01:45.870Z,88.20
2022-11-04T19:04:14.237Z,81.20
2022-11-04T19:06:45.156Z,82.60
2022-11-04T19:09:45.462Z,81.80
2022-11-04T19:12:26.820Z,81.70
2022-11-04T19:14:55.880Z,79.20
2022-11-04T19:17:25.343Z,78.60
2022-11-04T19:19:53.083Z,84.40
2022-11-04T19:22:20.879Z,84.50
2022-11-04T19:24:48.701Z,86.20
2022-11-04T19:27:18.813Z,85.80
2022-11-04T19:29:46.776Z,82.50
2022-11-04T19:32:14.783Z,80.30
2022-11-04T19:34:44.050Z,73.90
2022-11-04T19:37:11.942Z,77.40
2022-11-04T19:39:40.841Z,75.50
2022-11-04T19:42:30.503Z,77.60
2022-11-04T19:44:58.269Z,79.80
2022-11-04T19:47:27.033Z,89.60
2022-11-04T19:49:56.561Z,91.10
2022-11-04T19:52:24.417Z,95.30
2022-11-04T19:54:52.181Z,91.00
2022-11-04T19:57:19.921Z,96.20
2022-11-04T19:59:49.946Z,85.30
2022-11-04T20:02:17.953Z,84.40
2022-11-04T20:04:48.746Z,85.00
2022-11-04T20:07:17.967Z,77.20
2022-11-04T20:09:45.693Z,76.40
2022-11-04T20:12:32.082Z,78.40
2022-11-04T20:14:59.922Z,83.50
2022-11-04T20:17:27.670Z,74.90
2022-11-04T20:19:55.447Z,76.00
2022-11-04T20:22:23.208Z,74.70
2022-11-04T20:24:51.040Z,73.70
2022-11-04T20:27:20.041Z,73.10
2022-11-04T20:29:47.786Z,74.40
2022-11-04T20:32:15.514Z,77.70
2022-11-04T20:34:43.232Z,67.70
2022-11-04T20:37:13.664Z,69.70
2022-11-04T20:39:42.574Z,67.40
2022-11-04T20:42:10.362Z,74.30
2022-11-04T20:44:39.294Z,67.50
2022-11-04T20:47:07.035Z,63.10
2022-11-04T20:49:34.808Z,72.30
2022-11-04T20:52:04.351Z,67.20
2022-11-04T20:54:32.090Z,68.60
2022-11-04T20:56:59.806Z,67.80
2022-11-04T20:59:27.920Z,67.80
2022-11-04T21:01:55.857Z,67.00
2022-11-04T21:04:25.846Z,70.00
2022-11-04T21:06:54.759Z,70.20
2022-11-04T21:09:22.568Z,67.30
2022-11-04T21:11:50.466Z,70.90
2022-11-04T21:14:20.833Z,80.50
2022-11-04T21:16:48.582Z,74.10
2022-11-04T21:19:17.521Z,69.60
2022-11-04T21:21:47.733Z,67.40
2022-11-04T21:24:17.879Z,67.00
2022-11-04T21:26:46.546Z,73.20
2022-11-04T21:29:17.437Z,75.80
2022-11-04T21:31:47.060Z,68.80
2022-11-04T21:34:15.689Z,65.40
2022-11-04T21:36:43.524Z,61.50
2022-11-04T21:39:12.984Z,71.30
2022-11-04T21:41:40.681Z,66.30
2022-11-04T21:44:12.489Z,67.30
2022-11-04T21:46:41.054Z,61.40
2022-11-04T21:49:11.764Z,64.70
2022-11-04T21:51:39.765Z,62.50
2022-11-04T21:54:07.568Z,61.80
2022-11-04T21:56:36.077Z,59.60
2022-11-04T21:59:05.414Z,62.70
2022-11-04T22:01:33.947Z,56.80
2022-11-04T22:04:03.027Z,57.00
2022-11-04T22:06:35.047Z,57.70
2022-11-04T22:09:06.352Z,54.30
2022-11-04T22:11:39.660Z,59.30
2022-11-04T22:14:08.959Z,57.30
2022-11-04T22:16:39.492Z,61.70
2022-11-04T22:19:10.765Z,55.50
2022-11-04T22:21:41.388Z,62.80
2022-11-04T22:24:15.815Z,57.00
2022-11-04T22:26:44.605Z,51.70
2022-11-04T22:29:12.384Z,66.60
2022-11-04T22:31:43.309Z,83.20
2022-11-04T22:34:11.289Z,59.40
2022-11-04T22:36:40.178Z,56.90
2022-11-04T22:39:16.572Z,58.50
2022-11-04T22:41:46.792Z,53.20
2022-11-04T22:44:15.535Z,55.30
2022-11-04T22:46:43.787Z,54.60
2022-11-04T22:49:11.646Z,53.00
2022-11-04T22:51:39.341Z,56.50
2022-11-04T22:54:09.524Z,54.60
2022-11-04T22:56:38.174Z,55.10
2022-11-04T22:59:07.005Z,54.60
2022-11-04T23:01:36.151Z,58.70
2022-11-04T23:04:05.338Z,55.50
2022-11-04T23:06:33.103Z,54.70
2022-11-04T23:09:01.336Z,50.60
2022-11-04T23:11:49.734Z,57.60
2022-11-04T23:14:39.540Z,57.10
2022-11-04T23:17:40.856Z,52.60
2022-11-04T23:20:12.784Z,53.70
2022-11-04T23:22:59.528Z,51.30
2022-11-04T23:25:27.457Z,54.00
2022-11-04T23:28:25.445Z,50.60
2022-11-04T23:30:53.266Z,52.70
2022-11-04T23:33:40.939Z,49.10
2022-11-04T23:36:27.728Z,55.50
2022-11-04T23:38:55.531Z,51.20
2022-11-04T23:41:42.160Z,58.60
2022-11-04T23:44:29.903Z,53.90
2022-11-04T23:47:16.191Z,50.10
2022-11-04T23:50:02.556Z,53.20
2022-11-04T23:52:48.802Z,46.30
2022-11-04T23:55:35.244Z,53.80
2022-11-04T23:58:21.390Z,47.20
